Time;durP1;ratioP1;P1;durP2;ratioP2;P2;SDS_P1;SDS_P2;PMS_P1;PMS_P2;Temp;Humidity;BMP_temperature;BMP_pressure;BME280_temperature;BME280_humidity;BME280_pressure;Samples;Min_cycle;Max_cycle;Signal;HPM_P1;HPM_P2
2022/01/10 00:02:35;;;;;;;75.35;36.90;;;;;;;;;;4794950;29;20055;-77
2022/01/10 00:05:21;;;;;;;78.07;34.92;;;;;;;;;;4786482;29;20051;-77
2022/01/10 00:08:07;;;;;;;141.73;65.05;;;;;;;;;;4789091;30;20055;-77
2022/01/10 00:10:52;;;;;;;81.22;38.78;;;;;;;;;;4793684;29;20055;-79
2022/01/10 00:13:37;;;;;;;94.75;41.15;;;;;;;;;;4790097;30;20047;-79
2022/01/10 00:16:23;;;;;;;85.40;38.28;;;;;;;;;;4794743;29;20059;-78
2022/01/10 00:19:08;;;;;;;84.13;37.35;;;;;;;;;;4806456;29;20492;-78
2022/01/10 00:21:53;;;;;;;77.93;34.90;;;;;;;;;;4794340;29;20073;-78
2022/01/10 00:24:39;;;;;;;77.63;35.00;;;;;;;;;;4794604;29;20047;-78
2022/01/10 00:27:24;;;;;;;139.90;64.38;;;;;;;;;;4795452;29;20047;-79
2022/01/10 00:30:11;;;;;;;118.15;51.85;;;;;;;;;;4789455;30;20043;-78
2022/01/10 00:32:56;;;;;;;94.93;37.15;;;;;;;;;;4794893;29;20051;-81
2022/01/10 00:35:41;;;;;;;202.27;80.95;;;;;;;;;;4793785;29;20048;-82
2022/01/10 00:38:27;;;;;;;83.38;35.92;;;;;;;;;;4783132;29;20059;-81
2022/01/10 00:41:12;;;;;;;317.60;125.82;;;;;;;;;;4794258;29;20055;-80
2022/01/10 00:43:58;;;;;;;192.55;76.45;;;;;;;;;;4780264;29;20051;-80
2022/01/10 00:46:47;;;;;;;87.10;37.30;;;;;;;;;;4788563;30;20673;-81
2022/01/10 00:49:33;;;;;;;104.38;43.55;;;;;;;;;;4794192;29;20411;-80
2022/01/10 00:52:19;;;;;;;114.80;42.95;;;;;;;;;;4789962;30;20043;-81
2022/01/10 00:55:04;;;;;;;89.35;36.30;;;;;;;;;;4795192;29;20059;-81
2022/01/10 00:57:49;;;;;;;89.30;38.35;;;;;;;;;;4789528;30;20404;-79
2022/01/10 01:00:35;;;;;;;88.68;37.80;;;;;;;;;;4790447;30;20055;-80
2022/01/10 01:03:21;;;;;;;77.95;35.85;;;;;;;;;;4782408;29;20051;-80
2022/01/10 01:06:07;;;;;;;76.05;34.13;;;;;;;;;;4782353;29;20055;-82
2022/01/10 01:08:58;;;;;;;77.68;32.35;;;;;;;;;;4789762;30;20051;-81
2022/01/10 01:14:53;;;;;;;68.07;32.00;;;;;;;;;;4794405;29;20054;-82
2022/01/10 01:17:57;;;;;;;95.15;42.80;;;;;;;;;;4795237;29;20051;-80
2022/01/10 01:20:45;;;;;;;63.85;27.40;;;;;;;;;;4782452;29;20052;-80
2022/01/10 01:26:40;;;;;;;48.40;21.27;;;;;;;;;;4789247;30;20063;-80
2022/01/10 01:29:29;;;;;;;56.85;26.60;;;;;;;;;;4795198;29;20055;-81
2022/01/10 01:32:15;;;;;;;57.13;28.90;;;;;;;;;;4788785;30;20067;-80
2022/01/10 01:35:06;;;;;;;53.05;24.10;;;;;;;;;;4781947;29;20051;-81
2022/01/10 01:37:52;;;;;;;52.10;25.13;;;;;;;;;;4773170;30;20051;-81
2022/01/10 01:40:44;;;;;;;52.03;24.52;;;;;;;;;;4776467;30;20055;-79
2022/01/10 01:43:30;;;;;;;46.20;21.73;;;;;;;;;;4777018;30;20472;-80
2022/01/10 01:46:16;;;;;;;65.75;28.70;;;;;;;;;;4776564;30;20060;-80
2022/01/10 01:49:05;;;;;;;72.28;29.63;;;;;;;;;;4771552;30;20047;-80
2022/01/10 01:51:51;;;;;;;57.05;23.83;;;;;;;;;;4789913;29;20489;-78
2022/01/10 01:54:36;;;;;;;60.35;25.55;;;;;;;;;;4782732;29;20059;-79
2022/01/10 01:57:22;;;;;;;51.20;23.88;;;;;;;;;;4797652;29;20404;-80
2022/01/10 02:00:08;;;;;;;53.55;24.77;;;;;;;;;;4788087;29;20051;-80
2022/01/10 02:03:03;;;;;;;53.05;21.25;;;;;;;;;;4763729;30;20048;-80
2022/01/10 02:05:51;;;;;;;51.40;22.33;;;;;;;;;;4781310;30;20063;-80
2022/01/10 02:08:38;;;;;;;47.85;22.85;;;;;;;;;;4786856;29;20048;-80
2022/01/10 02:11:24;;;;;;;41.67;21.15;;;;;;;;;;4789097;29;20056;-79
2022/01/10 02:14:10;;;;;;;43.90;20.27;;;;;;;;;;4788450;29;20059;-79
2022/01/10 02:16:59;;;;;;;37.13;18.50;;;;;;;;;;4763087;30;20052;-80
2022/01/10 02:20:07;;;;;;;39.42;20.02;;;;;;;;;;4771166;30;20051;-80
2022/01/10 02:22:53;;;;;;;41.85;17.73;;;;;;;;;;4788705;29;20480;-80
2022/01/10 02:25:55;;;;;;;44.00;21.83;;;;;;;;;;4775681;30;20059;-81
2022/01/10 02:28:46;;;;;;;21.02;12.05;;;;;;;;;;4763440;30;20059;-80
2022/01/10 02:31:39;;;;;;;41.55;19.13;;;;;;;;;;4775438;30;20401;-81
2022/01/10 02:34:26;;;;;;;42.80;19.63;;;;;;;;;;4785824;30;20055;-78
2022/01/10 02:37:11;;;;;;;46.08;20.70;;;;;;;;;;4785191;29;20114;-78
2022/01/10 02:39:58;;;;;;;67.43;28.65;;;;;;;;;;4788866;29;20051;-79
2022/01/10 02:42:44;;;;;;;32.17;16.67;;;;;;;;;;4788523;29;20055;-82
2022/01/10 02:45:31;;;;;;;41.20;21.17;;;;;;;;;;4791399;30;20062;-80
2022/01/10 02:48:17;;;;;;;41.78;21.05;;;;;;;;;;4788617;30;20047;-82
2022/01/10 02:51:02;;;;;;;42.33;21.10;;;;;;;;;;4800622;29;20408;-80
2022/01/10 02:53:48;;;;;;;42.20;21.33;;;;;;;;;;4774775;30;20051;-80
2022/01/10 02:56:47;;;;;;;42.22;20.10;;;;;;;;;;4786296;30;20055;-80
2022/01/10 02:59:36;;;;;;;35.00;19.63;;;;;;;;;;4778913;30;20520;-80
2022/01/10 03:02:26;;;;;;;48.05;21.17;;;;;;;;;;4783266;29;20048;-82
2022/01/10 03:05:12;;;;;;;39.20;19.63;;;;;;;;;;4783040;29;20059;-81
2022/01/10 03:07:59;;;;;;;30.55;16.95;;;;;;;;;;4792077;30;20047;-80
2022/01/10 03:10:44;;;;;;;32.53;16.10;;;;;;;;;;4796536;29;20059;-81
2022/01/10 03:13:29;;;;;;;35.97;17.25;;;;;;;;;;4783989;29;20055;-82
2022/01/10 03:16:15;;;;;;;38.50;18.20;;;;;;;;;;4791656;30;20404;-81
2022/01/10 03:19:01;;;;;;;38.88;19.60;;;;;;;;;;4784621;29;20055;-79
2022/01/10 03:21:46;;;;;;;44.42;21.20;;;;;;;;;;4798005;29;20059;-81
2022/01/10 03:24:32;;;;;;;42.33;20.65;;;;;;;;;;4784010;29;20059;-81
2022/01/10 03:27:18;;;;;;;41.15;20.98;;;;;;;;;;4784786;29;20059;-81
2022/01/10 03:30:04;;;;;;;43.88;21.50;;;;;;;;;;4783566;29;20048;-81
2022/01/10 03:32:51;;;;;;;38.75;20.73;;;;;;;;;;4784220;29;20055;-81
2022/01/10 03:35:51;;;;;;;36.25;19.35;;;;;;;;;;4783793;29;20047;-83
2022/01/10 03:38:37;;;;;;;43.92;20.95;;;;;;;;;;4779548;30;20055;-81
2022/01/10 03:41:22;;;;;;;40.78;21.20;;;;;;;;;;4783469;29;20056;-82
2022/01/10 03:44:08;;;;;;;38.28;19.60;;;;;;;;;;4791607;30;20047;-83
2022/01/10 03:46:53;;;;;;;44.33;21.80;;;;;;;;;;4783766;29;20051;-84
2022/01/10 03:49:39;;;;;;;53.13;22.42;;;;;;;;;;4783656;29;20055;-79
2022/01/10 03:52:26;;;;;;;44.13;21.50;;;;;;;;;;4791096;30;20055;-81
2022/01/10 03:55:12;;;;;;;45.83;21.52;;;;;;;;;;4791019;30;20051;-81
2022/01/10 03:57:57;;;;;;;44.88;21.55;;;;;;;;;;4797909;29;20051;-82
2022/01/10 04:00:42;;;;;;;43.45;20.75;;;;;;;;;;4784330;29;20055;-81
2022/01/10 04:03:28;;;;;;;44.75;22.70;;;;;;;;;;4792303;30;20063;-80
2022/01/10 04:06:21;;;;;;;51.10;23.15;;;;;;;;;;4783650;29;20051;-83
2022/01/10 04:09:07;;;;;;;45.92;22.38;;;;;;;;;;4783902;29;20059;-81
2022/01/10 04:11:52;;;;;;;52.20;24.83;;;;;;;;;;4783197;29;20055;-79
2022/01/10 04:14:38;;;;;;;51.00;24.77;;;;;;;;;;4782202;29;20063;-81
2022/01/10 04:17:23;;;;;;;48.10;23.00;;;;;;;;;;4781223;29;20477;-80
2022/01/10 04:20:09;;;;;;;53.75;23.95;;;;;;;;;;4785225;29;20043;-80
2022/01/10 04:22:54;;;;;;;49.95;23.15;;;;;;;;;;4785839;29;20043;-82
2022/01/10 04:25:39;;;;;;;55.15;25.88;;;;;;;;;;4789957;29;20059;-82
2022/01/10 04:28:26;;;;;;;57.30;25.85;;;;;;;;;;4801935;29;20055;-82
2022/01/10 04:31:12;;;;;;;50.10;23.85;;;;;;;;;;4781277;29;20083;-82
2022/01/10 04:33:57;;;;;;;54.10;25.60;;;;;;;;;;4780926;29;20051;-81
2022/01/10 04:36:43;;;;;;;43.28;21.88;;;;;;;;;;4780623;29;20051;-81
2022/01/10 04:39:28;;;;;;;52.47;23.65;;;;;;;;;;4793471;29;20059;-79
2022/01/10 04:42:14;;;;;;;44.50;21.27;;;;;;;;;;4780489;29;20055;-82
2022/01/10 04:44:59;;;;;;;44.10;22.65;;;;;;;;;;4781076;29;20059;-81
2022/01/10 04:47:45;;;;;;;44.92;23.05;;;;;;;;;;4781763;29;20488;-82
2022/01/10 04:53:36;;;;;;;43.83;21.70;;;;;;;;;;4795347;29;20063;-80
2022/01/10 04:56:22;;;;;;;45.22;21.02;;;;;;;;;;4789718;30;20474;-81
2022/01/10 04:59:12;;;;;;;48.67;22.67;;;;;;;;;;4794775;29;20055;-80
2022/01/10 05:01:57;;;;;;;50.25;22.40;;;;;;;;;;4790094;30;20059;-81
2022/01/10 05:04:43;;;;;;;40.95;21.35;;;;;;;;;;4770055;29;20497;-82
2022/01/10 05:07:28;;;;;;;45.88;21.52;;;;;;;;;;4782709;29;20051;-82
2022/01/10 05:10:14;;;;;;;43.53;20.35;;;;;;;;;;4781854;29;20051;-82
2022/01/10 05:13:02;;;;;;;34.60;18.23;;;;;;;;;;4794767;29;20059;-82
2022/01/10 05:15:49;;;;;;;42.20;21.00;;;;;;;;;;4781887;29;20051;-80
2022/01/10 05:18:36;;;;;;;39.42;19.75;;;;;;;;;;4782280;29;20051;-81
2022/01/10 05:21:22;;;;;;;38.95;18.33;;;;;;;;;;4782464;29;20051;-81
2022/01/10 05:24:08;;;;;;;36.50;19.15;;;;;;;;;;4789092;29;20043;-83
2022/01/10 05:26:54;;;;;;;43.15;21.13;;;;;;;;;;4797506;29;20067;-83
2022/01/10 05:29:43;;;;;;;39.97;18.92;;;;;;;;;;4786430;29;20055;-83
2022/01/10 05:32:30;;;;;;;37.58;17.35;;;;;;;;;;4792503;29;20051;-81
2022/01/10 05:35:29;;;;;;;35.58;17.13;;;;;;;;;;4793146;29;20055;-81
2022/01/10 05:38:15;;;;;;;26.23;14.95;;;;;;;;;;4776901;30;20052;-82
2022/01/10 05:41:00;;;;;;;25.70;14.77;;;;;;;;;;4772043;30;20052;-82
2022/01/10 05:43:45;;;;;;;29.13;14.90;;;;;;;;;;4788854;29;20047;-83
2022/01/10 05:46:34;;;;;;;28.90;15.63;;;;;;;;;;4776612;30;20055;-83
2022/01/10 05:49:26;;;;;;;31.50;14.60;;;;;;;;;;4789147;29;20064;-83
2022/01/10 05:52:11;;;;;;;25.63;14.57;;;;;;;;;;4788519;29;20052;-82
2022/01/10 05:54:57;;;;;;;26.73;15.30;;;;;;;;;;4776664;30;20056;-82
2022/01/10 05:57:44;;;;;;;22.10;12.57;;;;;;;;;;4788151;29;20044;-83
2022/01/10 06:00:32;;;;;;;25.42;13.77;;;;;;;;;;4776319;30;20477;-82
2022/01/10 06:03:17;;;;;;;23.98;13.43;;;;;;;;;;4771211;30;20060;-81
2022/01/10 06:06:09;;;;;;;23.45;12.63;;;;;;;;;;4775931;30;20056;-83
2022/01/10 06:08:56;;;;;;;26.77;15.10;;;;;;;;;;4780973;30;20051;-82
2022/01/10 06:11:42;;;;;;;28.83;15.00;;;;;;;;;;4781030;30;20060;-82
2022/01/10 06:14:33;;;;;;;25.27;13.25;;;;;;;;;;4783230;30;20052;-81
2022/01/10 06:17:18;;;;;;;34.88;16.13;;;;;;;;;;4789998;30;20047;-80
2022/01/10 06:20:05;;;;;;;31.35;15.40;;;;;;;;;;4778358;30;20048;-83
2022/01/10 06:22:51;;;;;;;40.47;20.35;;;;;;;;;;4773370;30;20485;-82
2022/01/10 06:25:36;;;;;;;23.13;12.63;;;;;;;;;;4771286;30;20055;-82
2022/01/10 06:28:22;;;;;;;25.77;13.60;;;;;;;;;;4774872;30;20071;-82
2022/01/10 06:31:12;;;;;;;22.73;12.57;;;;;;;;;;4776467;30;20516;-82
2022/01/10 06:34:12;;;;;;;23.77;13.27;;;;;;;;;;4757735;30;20056;-82
2022/01/10 06:37:01;;;;;;;82.07;30.40;;;;;;;;;;4778445;29;20048;-82
2022/01/10 06:39:49;;;;;;;30.98;16.15;;;;;;;;;;4770323;29;20055;-83
2022/01/10 06:42:35;;;;;;;37.85;20.48;;;;;;;;;;4790282;29;20055;-83
2022/01/10 06:45:21;;;;;;;37.30;17.33;;;;;;;;;;4799376;29;20055;-83
2022/01/10 06:48:06;;;;;;;35.75;15.55;;;;;;;;;;4810395;29;20399;-81
2022/01/10 06:50:56;;;;;;;23.08;13.02;;;;;;;;;;4800003;29;20492;-82
2022/01/10 06:53:42;;;;;;;29.83;14.65;;;;;;;;;;4781040;29;20063;-81
2022/01/10 06:56:28;;;;;;;25.55;13.57;;;;;;;;;;4784554;29;20051;-82
2022/01/10 06:59:18;;;;;;;26.80;13.75;;;;;;;;;;4778891;29;20499;-81
2022/01/10 07:02:05;;;;;;;34.60;17.70;;;;;;;;;;4791469;29;20050;-81
2022/01/10 07:04:51;;;;;;;57.97;28.30;;;;;;;;;;4790713;29;20047;-82
2022/01/10 07:07:36;;;;;;;47.35;24.67;;;;;;;;;;4813047;29;20083;-80
2022/01/10 07:10:31;;;;;;;53.35;27.33;;;;;;;;;;4789806;29;20411;-81
2022/01/10 07:13:17;;;;;;;54.60;25.30;;;;;;;;;;4794700;29;20423;-80
2022/01/10 07:16:05;;;;;;;44.95;25.67;;;;;;;;;;4783796;29;20051;-80
2022/01/10 07:18:50;;;;;;;31.08;18.15;;;;;;;;;;4783780;29;20055;-79
2022/01/10 07:21:45;;;;;;;28.20;17.03;;;;;;;;;;4796548;29;20047;-81
2022/01/10 07:24:32;;;;;;;23.85;15.25;;;;;;;;;;4783317;29;20434;-82
2022/01/10 07:27:17;;;;;;;25.67;15.32;;;;;;;;;;4794034;29;20232;-78
2022/01/10 07:30:04;;;;;;;28.30;15.77;;;;;;;;;;4773463;30;20052;-80
2022/01/10 07:32:49;;;;;;;27.88;17.80;;;;;;;;;;4773803;30;20407;-79
2022/01/10 07:35:35;;;;;;;25.60;15.15;;;;;;;;;;4772861;30;20056;-79
2022/01/10 07:38:21;;;;;;;30.45;15.65;;;;;;;;;;4773250;30;20063;-79
2022/01/10 07:41:07;;;;;;;23.60;13.18;;;;;;;;;;4778733;30;20059;-82
2022/01/10 07:43:52;;;;;;;27.25;15.43;;;;;;;;;;4771855;30;20280;-80
2022/01/10 07:46:40;;;;;;;31.10;15.82;;;;;;;;;;4789314;29;20056;-79
2022/01/10 07:49:25;;;;;;;30.95;18.02;;;;;;;;;;4772228;30;20044;-80
2022/01/10 07:52:10;;;;;;;26.70;14.93;;;;;;;;;;4773044;30;20044;-80
2022/01/10 07:54:56;;;;;;;24.95;15.43;;;;;;;;;;4773115;30;20059;-79
2022/01/10 07:57:42;;;;;;;27.83;16.48;;;;;;;;;;4778505;30;20055;-80
2022/01/10 08:00:27;;;;;;;26.42;14.90;;;;;;;;;;4773449;30;20052;-81
2022/01/10 08:03:13;;;;;;;28.58;14.95;;;;;;;;;;4772877;30;20051;-79
2022/01/10 08:05:58;;;;;;;34.42;17.85;;;;;;;;;;4779186;30;20051;-80
2022/01/10 08:08:43;;;;;;;46.10;22.15;;;;;;;;;;4779073;30;20056;-80
2022/01/10 08:11:29;;;;;;;52.35;25.33;;;;;;;;;;4778999;30;20056;-81
2022/01/10 08:14:14;;;;;;;55.05;26.10;;;;;;;;;;4779937;30;20048;-80
2022/01/10 08:17:00;;;;;;;42.28;21.65;;;;;;;;;;4773105;30;20416;-81
2022/01/10 08:19:45;;;;;;;32.22;18.92;;;;;;;;;;4772678;30;20044;-81
2022/01/10 08:22:31;;;;;;;28.42;18.90;;;;;;;;;;4784837;30;20063;-79
2022/01/10 08:25:16;;;;;;;30.15;16.33;;;;;;;;;;4776197;30;20051;-79
2022/01/10 08:28:01;;;;;;;28.10;15.52;;;;;;;;;;4793563;29;20063;-78
2022/01/10 08:30:47;;;;;;;36.22;19.80;;;;;;;;;;4785359;30;20044;-78
2022/01/10 08:33:32;;;;;;;42.92;21.30;;;;;;;;;;4797610;29;20060;-79
2022/01/10 08:36:18;;;;;;;49.50;24.77;;;;;;;;;;4777810;30;20052;-80
2022/01/10 08:39:05;;;;;;;40.88;23.00;;;;;;;;;;4771729;30;20432;-80
2022/01/10 08:41:51;;;;;;;32.10;18.70;;;;;;;;;;4772181;30;20052;-79
2022/01/10 08:44:36;;;;;;;40.83;22.77;;;;;;;;;;4778467;30;20051;-80
2022/01/10 08:47:22;;;;;;;35.75;18.15;;;;;;;;;;4777822;30;20055;-79
2022/01/10 08:50:10;;;;;;;44.20;24.35;;;;;;;;;;4759127;30;20048;-80
2022/01/10 08:52:56;;;;;;;30.23;17.58;;;;;;;;;;4772194;30;20059;-80
2022/01/10 08:55:41;;;;;;;52.67;24.60;;;;;;;;;;4789805;29;20051;-81
2022/01/10 08:58:32;;;;;;;36.45;19.10;;;;;;;;;;4771920;30;20047;-80
2022/01/10 09:01:19;;;;;;;95.03;40.55;;;;;;;;;;4771568;30;20044;-79
2022/01/10 09:04:05;;;;;;;54.03;24.27;;;;;;;;;;4772013;30;20051;-79
2022/01/10 09:06:52;;;;;;;41.38;20.92;;;;;;;;;;4771916;30;20051;-79
2022/01/10 09:09:38;;;;;;;34.13;16.58;;;;;;;;;;4772456;30;20052;-81
2022/01/10 09:12:23;;;;;;;64.90;29.23;;;;;;;;;;4777688;30;20052;-79
2022/01/10 09:15:10;;;;;;;34.10;18.55;;;;;;;;;;4771596;30;20063;-80
2022/01/10 09:17:55;;;;;;;45.97;24.23;;;;;;;;;;4771483;30;20051;-82
2022/01/10 09:20:43;;;;;;;48.30;26.67;;;;;;;;;;4777971;30;20455;-81
2022/01/10 09:23:28;;;;;;;42.55;22.67;;;;;;;;;;4772588;30;20059;-79
2022/01/10 09:26:13;;;;;;;31.50;18.98;;;;;;;;;;4771896;30;20056;-81
2022/01/10 09:29:00;;;;;;;41.97;22.67;;;;;;;;;;4777167;30;20059;-83
2022/01/10 09:31:45;;;;;;;15.57;10.48;;;;;;;;;;4777664;30;20433;-81
2022/01/10 09:34:30;;;;;;;32.35;18.67;;;;;;;;;;4769723;30;20043;-79
2022/01/10 09:37:16;;;;;;;28.10;14.40;;;;;;;;;;4770992;30;20051;-81
2022/01/10 09:40:02;;;;;;;35.33;19.25;;;;;;;;;;4771660;30;20404;-82
2022/01/10 09:42:47;;;;;;;32.42;18.15;;;;;;;;;;4771245;30;20056;-80
2022/01/10 09:45:34;;;;;;;36.40;19.77;;;;;;;;;;4782810;30;20052;-78
2022/01/10 09:48:23;;;;;;;31.73;14.95;;;;;;;;;;4788740;29;20055;-82
2022/01/10 09:51:17;;;;;;;23.45;12.63;;;;;;;;;;4764071;30;20060;-79
2022/01/10 09:54:12;;;;;;;33.10;18.38;;;;;;;;;;4766335;30;20400;-81
2022/01/10 09:56:56;;;;;;;24.90;14.98;;;;;;;;;;4776334;30;20047;-80
2022/01/10 09:59:42;;;;;;;26.98;15.73;;;;;;;;;;4771479;30;20052;-82
2022/01/10 10:02:33;;;;;;;33.05;18.20;;;;;;;;;;4776893;30;20480;-81
2022/01/10 10:05:19;;;;;;;25.48;14.02;;;;;;;;;;4771420;30;20063;-80
2022/01/10 10:08:07;;;;;;;24.08;13.68;;;;;;;;;;4777570;30;20060;-80
2022/01/10 10:10:54;;;;;;;27.73;15.77;;;;;;;;;;4770669;30;20059;-78
2022/01/10 10:13:52;;;;;;;21.40;13.45;;;;;;;;;;4771662;30;20055;-79
2022/01/10 10:16:39;;;;;;;28.75;14.40;;;;;;;;;;4771371;30;20048;-80
2022/01/10 10:19:27;;;;;;;35.72;17.95;;;;;;;;;;4771905;30;20044;-79
2022/01/10 10:22:15;;;;;;;19.30;11.13;;;;;;;;;;4771576;30;20055;-81
2022/01/10 10:25:06;;;;;;;24.52;11.27;;;;;;;;;;4777846;30;20055;-81
2022/01/10 10:27:51;;;;;;;29.98;14.82;;;;;;;;;;4772947;30;20052;-80
2022/01/10 10:30:36;;;;;;;34.05;16.52;;;;;;;;;;4771761;30;20048;-79
2022/01/10 10:33:23;;;;;;;34.45;20.85;;;;;;;;;;4771875;30;20052;-80
2022/01/10 10:36:10;;;;;;;16.55;10.20;;;;;;;;;;4776555;30;20059;-79
2022/01/10 10:38:55;;;;;;;41.67;22.48;;;;;;;;;;4773701;30;20055;-79
2022/01/10 10:41:42;;;;;;;24.13;13.40;;;;;;;;;;4776477;30;20048;-76
2022/01/10 10:44:28;;;;;;;25.73;16.27;;;;;;;;;;4776247;30;20048;-77
2022/01/10 10:47:17;;;;;;;18.52;11.90;;;;;;;;;;4781961;30;20056;-81
2022/01/10 10:50:05;;;;;;;20.58;12.18;;;;;;;;;;4784999;30;20044;-77
2022/01/10 10:52:50;;;;;;;18.52;10.88;;;;;;;;;;4791492;30;20044;-78
2022/01/10 10:55:41;;;;;;;5.40;3.95;;;;;;;;;;4775713;30;20048;-82
2022/01/10 10:58:27;;;;;;;17.98;11.13;;;;;;;;;;4772288;30;20047;-79
2022/01/10 11:01:12;;;;;;;26.52;15.75;;;;;;;;;;4770599;30;20403;-76
2022/01/10 11:03:57;;;;;;;23.23;14.05;;;;;;;;;;4787955;30;20060;-78
2022/01/10 11:06:43;;;;;;;10.57;7.75;;;;;;;;;;4769894;30;20055;-79
2022/01/10 11:09:29;;;;;;;6.90;5.47;;;;;;;;;;4770101;30;20059;-78
2022/01/10 11:12:17;;;;;;;15.95;9.25;;;;;;;;;;4776039;30;20052;-78
2022/01/10 11:15:03;;;;;;;13.98;9.02;;;;;;;;;;4776521;30;20056;-80
2022/01/10 11:17:49;;;;;;;24.25;13.50;;;;;;;;;;4770155;30;20060;-78
2022/01/10 11:20:46;;;;;;;14.10;7.78;;;;;;;;;;4771008;30;20048;-80
2022/01/10 11:23:31;;;;;;;18.25;10.30;;;;;;;;;;4776339;30;20043;-78
2022/01/10 11:26:17;;;;;;;15.15;8.75;;;;;;;;;;4787921;30;20048;-80
2022/01/10 11:29:05;;;;;;;7.70;5.20;;;;;;;;;;4790018;30;20055;-78
2022/01/10 11:31:51;;;;;;;9.57;6.10;;;;;;;;;;4783894;30;20048;-80
2022/01/10 11:34:36;;;;;;;9.75;6.60;;;;;;;;;;4774799;30;20044;-79
2022/01/10 11:37:22;;;;;;;15.98;8.52;;;;;;;;;;4773431;30;20051;-77
2022/01/10 11:40:10;;;;;;;10.05;6.55;;;;;;;;;;4779804;30;20044;-78
2022/01/10 11:42:58;;;;;;;12.77;7.68;;;;;;;;;;4791177;29;20052;-77
2022/01/10 11:45:43;;;;;;;9.65;6.70;;;;;;;;;;4773529;30;20055;-77
2022/01/10 11:48:49;;;;;;;9.15;6.00;;;;;;;;;;4772745;30;20500;-80
2022/01/10 11:51:36;;;;;;;15.88;9.60;;;;;;;;;;4773376;30;20494;-78
2022/01/10 11:54:27;;;;;;;18.67;12.00;;;;;;;;;;4772693;30;20052;-80
2022/01/10 11:57:15;;;;;;;12.55;9.25;;;;;;;;;;4773103;30;20060;-79
2022/01/10 12:00:08;;;;;;;14.27;8.90;;;;;;;;;;4773532;30;20393;-77
2022/01/10 12:02:55;;;;;;;;;;;;;;;;;;4773163;30;20047;-80
2022/01/10 12:05:40;;;;;;;23.92;13.00;;;;;;;;;;4772443;30;20295;-80
2022/01/10 12:08:26;;;;;;;28.27;15.40;;;;;;;;;;4778734;30;20437;-79
2022/01/10 12:11:14;;;;;;;21.35;12.38;;;;;;;;;;4778655;30;20059;-79
2022/01/10 12:14:00;;;;;;;27.50;13.45;;;;;;;;;;4772263;30;20055;-79
2022/01/10 12:16:46;;;;;;;21.77;11.30;;;;;;;;;;4778783;30;20051;-79
2022/01/10 12:19:31;;;;;;;24.67;13.23;;;;;;;;;;4778856;30;20484;-79
2022/01/10 12:22:19;;;;;;;23.52;13.32;;;;;;;;;;4778696;30;20409;-79
2022/01/10 12:25:06;;;;;;;56.42;28.50;;;;;;;;;;4778339;30;20056;-78
2022/01/10 12:27:54;;;;;;;12.73;7.85;;;;;;;;;;4772049;30;20056;-79
2022/01/10 12:30:39;;;;;;;6.65;5.13;;;;;;;;;;4773672;30;20047;-78
2022/01/10 12:33:25;;;;;;;17.38;10.93;;;;;;;;;;4772533;30;20052;-78
2022/01/10 12:36:11;;;;;;;30.02;17.63;;;;;;;;;;4772415;30;20047;-78
2022/01/10 12:39:11;;;;;;;19.52;11.60;;;;;;;;;;4773365;30;20055;-80
2022/01/10 12:41:58;;;;;;;13.45;8.55;;;;;;;;;;4778984;30;20488;-79
2022/01/10 12:44:43;;;;;;;17.73;10.98;;;;;;;;;;4773660;30;20052;-79
2022/01/10 12:47:29;;;;;;;25.48;14.48;;;;;;;;;;4778668;30;20059;-79
2022/01/10 12:50:15;;;;;;;9.18;6.43;;;;;;;;;;4771843;30;20052;-79
2022/01/10 12:53:00;;;;;;;15.13;10.35;;;;;;;;;;4772283;30;20052;-79
2022/01/10 12:55:46;;;;;;;15.07;10.52;;;;;;;;;;4777504;30;20472;-77
2022/01/10 12:58:35;;;;;;;15.00;8.52;;;;;;;;;;4772765;30;20052;-79
2022/01/10 13:01:24;;;;;;;9.40;4.60;;;;;;;;;;4777540;30;20052;-78
2022/01/10 13:04:10;;;;;;;20.30;11.88;;;;;;;;;;4777996;30;20056;-80
2022/01/10 13:06:57;;;;;;;17.83;10.68;;;;;;;;;;4771923;30;20048;-80
2022/01/10 13:09:44;;;;;;;18.67;10.50;;;;;;;;;;4776527;30;20056;-79
2022/01/10 13:12:29;;;;;;;27.65;15.25;;;;;;;;;;4771728;30;20047;-78
2022/01/10 13:15:15;;;;;;;29.27;12.95;;;;;;;;;;4777622;30;20059;-79
2022/01/10 13:18:03;;;;;;;24.40;12.23;;;;;;;;;;4777279;30;20063;-79
2022/01/10 13:20:55;;;;;;;22.77;14.07;;;;;;;;;;4777684;30;20048;-78
2022/01/10 13:23:41;;;;;;;27.23;15.90;;;;;;;;;;4771358;30;20052;-78
2022/01/10 13:26:28;;;;;;;33.15;18.23;;;;;;;;;;4771840;30;20055;-80
2022/01/10 13:29:13;;;;;;;22.60;13.85;;;;;;;;;;4771535;30;20404;-79
2022/01/10 13:32:15;;;;;;;26.77;14.63;;;;;;;;;;4777424;30;20060;-78
2022/01/10 13:35:02;;;;;;;24.45;13.07;;;;;;;;;;4777183;30;20059;-80
2022/01/10 13:37:57;;;;;;;33.28;17.65;;;;;;;;;;4775588;30;20060;-77
2022/01/10 13:40:45;;;;;;;35.45;19.40;;;;;;;;;;4771091;30;20048;-79
2022/01/10 13:43:31;;;;;;;27.25;15.43;;;;;;;;;;4771227;30;20060;-78
2022/01/10 13:46:18;;;;;;;21.45;11.93;;;;;;;;;;4776992;30;20051;-78
2022/01/10 13:49:03;;;;;;;23.17;12.48;;;;;;;;;;4757982;30;20051;-79
2022/01/10 13:51:48;;;;;;;41.00;20.88;;;;;;;;;;4770703;30;20424;-78
2022/01/10 13:54:33;;;;;;;42.88;19.60;;;;;;;;;;4777112;30;20052;-78
2022/01/10 13:57:26;;;;;;;23.00;13.15;;;;;;;;;;4776889;30;20456;-79
2022/01/10 14:00:21;;;;;;;8.10;5.75;;;;;;;;;;4777162;30;20056;-80
2022/01/10 14:03:06;;;;;;;17.17;10.93;;;;;;;;;;4775933;30;20496;-80
2022/01/10 14:06:12;;;;;;;37.45;16.73;;;;;;;;;;4776443;30;20488;-78
2022/01/10 14:09:04;;;;;;;33.60;18.52;;;;;;;;;;4771665;30;20404;-81
2022/01/10 14:11:50;;;;;;;28.27;16.25;;;;;;;;;;4772365;30;20055;-80
2022/01/10 14:14:35;;;;;;;30.17;18.60;;;;;;;;;;4779563;30;20055;-79
2022/01/10 14:17:20;;;;;;;32.65;17.77;;;;;;;;;;4776062;30;20051;-77
2022/01/10 14:20:06;;;;;;;43.58;21.13;;;;;;;;;;4780680;30;20056;-77
2022/01/10 14:22:52;;;;;;;23.58;13.85;;;;;;;;;;4772955;30;20043;-80
2022/01/10 14:25:38;;;;;;;73.40;31.50;;;;;;;;;;4770528;30;20044;-78
2022/01/10 14:28:23;;;;;;;37.10;17.10;;;;;;;;;;4770807;30;20485;-80
2022/01/10 14:31:09;;;;;;;48.28;25.10;;;;;;;;;;4789085;29;20064;-77
2022/01/10 14:33:54;;;;;;;21.85;11.90;;;;;;;;;;4787884;30;20060;-78
2022/01/10 14:36:41;;;;;;;30.45;17.58;;;;;;;;;;4771333;30;20055;-76
2022/01/10 14:39:26;;;;;;;31.30;17.52;;;;;;;;;;4771179;30;20055;-80
2022/01/10 14:42:12;;;;;;;24.45;12.85;;;;;;;;;;4776733;30;20052;-78
2022/01/10 14:44:58;;;;;;;28.40;15.35;;;;;;;;;;4771225;30;20060;-79
2022/01/10 14:47:43;;;;;;;17.65;10.80;;;;;;;;;;4770021;30;20059;-79
2022/01/10 14:50:28;;;;;;;24.17;13.82;;;;;;;;;;4776456;30;20056;-78
2022/01/10 14:53:15;;;;;;;16.90;11.13;;;;;;;;;;4769929;30;20051;-78
2022/01/10 14:56:00;;;;;;;17.17;10.07;;;;;;;;;;4776654;30;20063;-79
2022/01/10 14:58:47;;;;;;;23.73;14.38;;;;;;;;;;4773965;30;20051;-76
2022/01/10 15:01:32;;;;;;;23.23;13.65;;;;;;;;;;4779813;30;20051;-78
2022/01/10 15:04:17;;;;;;;21.85;12.75;;;;;;;;;;4773453;30;20056;-78
2022/01/10 15:07:04;;;;;;;17.70;9.25;;;;;;;;;;4773720;30;20039;-78
2022/01/10 15:09:49;;;;;;;22.55;13.10;;;;;;;;;;4779930;30;20056;-78
2022/01/10 15:12:34;;;;;;;10.68;7.50;;;;;;;;;;4779718;30;20480;-78
2022/01/10 15:15:20;;;;;;;26.02;12.95;;;;;;;;;;4779330;30;20059;-78
2022/01/10 15:18:06;;;;;;;17.27;8.68;;;;;;;;;;4773208;30;20056;-77
2022/01/10 15:20:53;;;;;;;25.42;14.90;;;;;;;;;;4779375;30;20055;-77
2022/01/10 15:23:39;;;;;;;21.00;12.55;;;;;;;;;;4779449;30;20052;-78
2022/01/10 15:26:24;;;;;;;19.55;10.90;;;;;;;;;;4779191;30;20051;-80
2022/01/10 15:29:11;;;;;;;23.10;13.38;;;;;;;;;;4779099;30;20063;-78
2022/01/10 15:31:57;;;;;;;16.95;10.25;;;;;;;;;;4773788;30;20044;-78
2022/01/10 15:34:42;;;;;;;33.42;16.63;;;;;;;;;;4779083;30;20055;-77
2022/01/10 15:37:28;;;;;;;26.00;11.75;;;;;;;;;;4779907;30;20059;-80
2022/01/10 15:40:13;;;;;;;21.40;12.82;;;;;;;;;;4791380;30;20047;-78
2022/01/10 15:42:59;;;;;;;41.45;18.58;;;;;;;;;;4795679;29;20063;-78
2022/01/10 15:45:44;;;;;;;19.85;10.18;;;;;;;;;;4797015;29;20047;-79
2022/01/10 15:48:30;;;;;;;22.17;11.75;;;;;;;;;;4791899;30;20063;-78
2022/01/10 15:51:16;;;;;;;27.20;13.13;;;;;;;;;;4796560;29;20051;-79
2022/01/10 15:54:02;;;;;;;23.42;14.32;;;;;;;;;;4796721;29;20062;-79
2022/01/10 15:56:48;;;;;;;32.45;16.33;;;;;;;;;;4796776;29;20059;-79
2022/01/10 15:59:34;;;;;;;27.60;14.13;;;;;;;;;;4796651;29;20051;-78
2022/01/10 16:02:19;;;;;;;46.78;26.02;;;;;;;;;;4797088;29;20047;-80
2022/01/10 16:05:06;;;;;;;66.40;30.63;;;;;;;;;;4790594;30;20055;-79
2022/01/10 16:07:52;;;;;;;68.57;30.60;;;;;;;;;;4797099;29;20063;-78
2022/01/10 16:10:38;;;;;;;62.45;27.95;;;;;;;;;;4796024;29;20480;-79
2022/01/10 16:13:28;;;;;;;49.97;23.85;;;;;;;;;;4797011;29;20426;-76
2022/01/10 16:16:14;;;;;;;50.78;23.48;;;;;;;;;;4796866;29;20063;-77
2022/01/10 16:18:59;;;;;;;29.48;16.73;;;;;;;;;;4796073;29;20051;-77
2022/01/10 16:21:45;;;;;;;26.33;14.65;;;;;;;;;;4796705;29;20051;-78
2022/01/10 16:24:31;;;;;;;35.85;19.48;;;;;;;;;;4796398;29;20063;-78